Aviation Digital Data Service (ADDS)

Output produced by METARs form (1017 UTC 19 January 2019)
found at http://www.aviationweather.gov/metar/data/
 
LSMA 190950Z AUTO 17003KT 9999NDV BKN150 M03/M06 Q1016 RMK
LSZB 190950Z 15004KT 9999 BKN022 M02/M05 Q1015 NOSIG
TAF LSZB 190825Z 1909/1918 VRB03KT 9999 BKN025 
     PROB40 1910/1918 CAVOK
       
LSMD 190950Z AUTO 00000KT 9999NDV FEW150 M02/M05 Q1016 RMK
LSME 190950Z AUTO 00000KT 9999NDV NCD M01/M04 Q1016 RMK
LSGG 190950Z 25002KT 9999 FEW023 02/M04 Q1015 NOSIG
TAF LSGG 190825Z 1909/2015 VRB03KT 9999 BKN025 TX02/1915Z TNM02/2006Z TX03/2015Z

     BECMG 1911/1913 FEW025 
     BECMG 1918/1921 BKN040
       
LSGC 190950Z 00000KT CAVOK M10/M11 Q1012
TAF LSGC 190825Z 1909/1918 VRB03KT CAVOK
       
LSZA 190950Z VRB02KT 6000 -RASN FEW009 SCT018 OVC029 03/00 Q1018 NOSIG
TAF LSZA 190825Z 1909/1918 VRB03KT 8000 BKN020 
     TEMPO 1909/1912 4000 -RASN
       
LSMM 190950Z AUTO 00000KT 9999NDV FEW140 M09/M10 Q1015 RMK
LSMP 190950Z 00000KT 9999 BKN023 00/M02 Q1015 RMK WHT
LSZS 190950Z VRB01KT 9999 SCT050 M13/M17 Q1010 R03/910095 RMK G
TAF LSZS 190825Z 1909/1918 VRB01KT 9999 SCT048 BKN060 TXM09/1914Z
       
LSGS 190950Z 09004KT CAVOK M03/M08 Q1016
TAF LSGS 190825Z 1909/1918 VRB03KT 9999 FEW150
       
LSZR 190950Z 08004KT 9999 BKN013 M03/M05 Q1016 NOSIG RMK E
TAF AMD LSZR 190936Z 1909/1918 VRB03KT CAVOK 
     PROB30 1909/1912 9999 BKN013
       
LSZH 190950Z VRB01KT 7000 FEW009 BKN010 M03/M05 Q1016 NOSIG
TAF AMD LSZH 190909Z 1909/2015 VRB03KT 7000 FEW012 SCT160 TXM00/1914Z
TNM04/2004Z TXM00/2014Z 
     TEMPO 1909/1912 BKN010 
     BECMG 1910/1913 CAVOK 
     BECMG 1923/2002 9999 BKN040 
     PROB40 
     TEMPO 2004/2013 4000 -SN BKN010